Flight Track Log - Related Links

Times and Time Zones

All times are in EDT time to prevent confusion due to time zone crossing. See the CSZ9582 flight status page for this flight to view local times or setup timezone preferences in your user account.


Time Position Orientation Groundspeed Altitude Reporting Facility
EDT Latitude Longitude Course Direction KTS MPH feet Rate Location/Type
Tue 10:38:27 AM 35.9071 117.0108 353° North 372 428 30,100  Level FlightAware ADS-B (TAO / ZSQD)
Tue 10:38:57 AM 35.9540 117.0032 353° North 369 425 30,100  Level FlightAware ADS-B (TAO / ZSQD)
Tue 10:39:27 AM 36.0083 116.9944 353° North 369 425 30,100  Level FlightAware ADS-B (TAO / ZSQD)
Tue 10:46:20 AM 36.7119 116.8789 353° North 375 432 30,100 -506 Level FlightAware ADS-B (TAO / ZSQD)
Tue 11:13:49 AM 39.3945 116.8850 18° North 290 334 12,700 -640 Descending FlightAware ADS-B
Tue 11:14:19 AM 39.4324 116.9016 18° North 280 322 12,200 -1,017 Descending FlightAware ADS-B
Tue 11:14:48 AM 39.4687 116.9174 18° North 275 316 11,700 -1,000 Descending FlightAware ADS-B
Tue 11:15:19 AM 39.5051 116.9333 18° North 276 318 11,200 -1,176 Descending FlightAware ADS-B
Tue 11:15:39 AM 39.5298 116.9408 North 275 316 10,700 -1,440 Descending FlightAware ADS-B
Tue 11:16:09 AM 39.5679 116.9414 North 274 315 10,000 -1,467 Descending FlightAware ADS-B
Tue 11:16:24 AM 39.5869 116.9415 North 273 314 9,600 -1,448 Descending FlightAware ADS-B
Tue 11:16:38 AM 39.6056 116.9416 North 271 312 9,300 -1,000 Descending FlightAware ADS-B
Tue 11:16:54 AM 39.6244 116.9416 North 263 303 9,100 -600 Descending FlightAware ADS-B
Tue 11:17:08 AM 39.6424 116.9417 North 255 293 9,000 -600 Descending FlightAware ADS-B
Tue 11:17:24 AM 39.6602 116.9418 North 248 285 8,800 -800 Descending FlightAware ADS-B
Tue 11:17:38 AM 39.6769 116.9418 North 239 275 8,600 -828 Descending FlightAware ADS-B
Tue 11:17:53 AM 39.6931 116.9418 North 230 265 8,400 -774 Descending FlightAware ADS-B
Tue 11:18:09 AM 39.7073 116.9419 North 224 258 8,200 -1,000 Descending FlightAware ADS-B
Tue 11:18:23 AM 39.7233 116.9420 North 220 253 7,900 -1,400 Descending FlightAware ADS-B
Tue 11:18:39 AM 39.7397 116.9420 North 219 252 7,500 -1,742 Descending FlightAware ADS-B
Tue 11:18:54 AM 39.7545 116.9420 North 219 252 7,000 -1,800 Descending FlightAware ADS-B
Tue 11:19:09 AM 39.7705 116.9420 North 219 252 6,600 -1,600 Descending FlightAware ADS-B
Tue 11:19:24 AM 39.7860 116.9418 North 223 257 6,200 -1,800 Descending FlightAware ADS-B
Tue 11:19:39 AM 39.8015 116.9414 355° North 221 254 5,700 -1,895 Descending FlightAware ADS-B
Tue 11:19:43 AM 39.8059 116.9400 349° North 219 252 5,600 -1,200 Descending FlightAware ADS-B
Tue 11:19:49 AM 39.8106 116.9374 332° Northwest 210 242 5,500 -1,636 Descending FlightAware ADS-B
Tue 11:19:54 AM 39.8141 116.9343 325° Northwest 208 239 5,300 -1,800 Descending FlightAware ADS-B
Tue 11:19:59 AM 39.8169 116.9308 311° West 202 232 5,200 -2,000 Descending FlightAware ADS-B
Tue 11:20:03 AM 39.8200 116.9249 299° West 197 227 5,000 -1,800 Descending FlightAware ADS-B
Tue 11:20:09 AM 39.8218 116.9186 290° West 193 222 4,900 -1,091 Descending FlightAware ADS-B
Tue 11:20:14 AM 39.8228 116.9129 282° West 190 219 4,800 -900 Descending FlightAware ADS-B
Tue 11:20:29 AM 39.8247 116.8961 278° West 184 212 4,600 -1,000 Descending FlightAware ADS-B
Tue 11:20:44 AM 39.8262 116.8799 277° West 182 209 4,300 -1,200 Descending FlightAware ADS-B
Tue 11:20:59 AM 39.8277 116.8633 277° West 182 209 4,000 -1,200 Descending FlightAware ADS-B
Tue 11:21:14 AM 39.8291 116.8482 278° West 180 207 3,700 -800 Descending FlightAware ADS-B
Tue 11:21:29 AM 39.8310 116.8310 279° West 180 207 3,600 -706 Descending FlightAware ADS-B
Tue 11:21:48 AM 39.8336 116.8098 280° West 183 211 3,300 -857 Descending FlightAware ADS-B
Tue 11:22:04 AM 39.8357 116.7936 280° West 182 209 3,100 -600 Descending FlightAware ADS-B
Tue 11:22:28 AM 39.8394 116.7669 280° West 179 206 2,900 -615 Descending FlightAware ADS-B
Tue 11:22:43 AM 39.8410 116.7549 280° West 179 206 2,700 -800 Descending FlightAware ADS-B
Tue 11:22:58 AM 39.8437 116.7352 280° West 179 206 2,500 -643 Descending FlightAware ADS-B
Tue 11:23:11 AM 39.8453 116.7234 280° West 179 206 2,400 -667 Descending FlightAware ADS-B
Tue 11:23:25 AM 39.8476 116.7060 280° West 179 206 2,200 -857 Descending FlightAware ADS-B

Login

Don't have an account? Register now (free) for customized features, flight alerts, and more!